createdAt,value
2018-06-24T00:01:17.234Z,4.19
2018-06-24T00:05:17.912Z,3.42
2018-06-24T00:11:18.743Z,4.57
2018-06-24T00:15:19.896Z,7.07
2018-06-24T00:17:20.565Z,4.31
2018-06-24T00:21:21.338Z,4.92
2018-06-24T00:27:22.101Z,4.48
2018-06-24T00:31:22.965Z,4.62
2018-06-24T00:37:23.769Z,7.76
2018-06-24T00:41:24.421Z,5.47
2018-06-24T00:43:25.138Z,3.83
2018-06-24T00:47:25.833Z,5.25
2018-06-24T00:53:26.639Z,5.92
2018-06-24T00:57:27.461Z,3.3
2018-06-24T01:03:28.205Z,3.42
2018-06-24T01:07:28.990Z,5.78
2018-06-24T01:09:29.758Z,3.79
2018-06-24T01:13:30.520Z,3.55
2018-06-24T01:19:31.154Z,4.25
2018-06-24T01:23:31.976Z,4.31
2018-06-24T01:29:32.729Z,3.37
2018-06-24T01:33:33.392Z,3.93
2018-06-24T01:35:34.113Z,3.41
2018-06-24T01:39:34.860Z,3.16
2018-06-24T01:45:35.632Z,3.31
2018-06-24T01:49:36.427Z,2.77
2018-06-24T01:55:37.206Z,4.12
2018-06-24T02:01:38.057Z,4.04
2018-06-24T02:05:38.686Z,4.13
2018-06-24T02:11:39.551Z,3.63
2018-06-24T02:15:40.896Z,2.86
2018-06-24T02:21:41.573Z,3.05
2018-06-24T02:27:42.315Z,3
2018-06-24T02:31:43.064Z,3.09
2018-06-24T02:37:43.782Z,3.99
2018-06-24T02:41:44.534Z,2.72
2018-06-24T02:47:45.311Z,3.59
2018-06-24T02:53:46.274Z,3.82
2018-06-24T02:57:46.988Z,3.49
2018-06-24T03:03:47.652Z,3.68
2018-06-24T03:07:48.444Z,5.62
2018-06-24T03:13:49.322Z,2.82
2018-06-24T03:19:49.943Z,5.17
2018-06-24T03:23:50.796Z,6.32
2018-06-24T03:29:51.604Z,5.05
2018-06-24T03:33:52.408Z,3.3
2018-06-24T03:39:53.082Z,2.51
2018-06-24T03:45:53.845Z,4.22
2018-06-24T03:49:54.665Z,3.97
2018-06-24T03:55:55.399Z,4.4
2018-06-24T03:59:56.177Z,3.35
2018-06-24T04:05:56.976Z,6.47
2018-06-24T04:11:57.715Z,2.74
2018-06-24T04:15:58.728Z,4
2018-06-24T04:21:59.516Z,3.75
2018-06-24T04:26:00.181Z,2.53
2018-06-24T04:32:00.868Z,4.26
2018-06-24T04:38:01.638Z,3.14
2018-06-24T04:42:02.559Z,3.46
2018-06-24T04:48:03.353Z,2.92
2018-06-24T04:52:04.232Z,2.32
2018-06-24T04:54:04.932Z,3.13
2018-06-24T04:58:05.644Z,2.57
2018-06-24T05:04:06.409Z,3.87
2018-06-24T05:08:07.395Z,3.03
2018-06-24T05:14:08.318Z,4.51
2018-06-24T05:18:09.115Z,2.88
2018-06-24T05:20:09.913Z,3.68
2018-06-24T05:24:10.612Z,4.04
2018-06-24T05:30:11.724Z,3.43
2018-06-24T05:34:12.483Z,4.92
2018-06-24T05:40:13.436Z,7.9
2018-06-24T05:44:14.140Z,4.26
2018-06-24T05:46:14.822Z,4.67
2018-06-24T05:50:15.512Z,4.57
2018-06-24T05:56:16.307Z,3.74
2018-06-24T06:00:17.682Z,3.4
2018-06-24T06:06:18.432Z,3.37
2018-06-24T06:10:19.374Z,4.64
2018-06-24T06:12:20.141Z,3.84
2018-06-24T06:16:20.894Z,3.35
2018-06-24T06:22:22.313Z,4.93
2018-06-24T06:26:23.128Z,4.72
2018-06-24T06:32:23.831Z,3.69
2018-06-24T06:36:25.484Z,4.06
2018-06-24T06:38:26.245Z,5.93
2018-06-24T06:42:27.120Z,4.03
2018-06-24T06:48:27.810Z,3.07
2018-06-24T06:52:28.595Z,3.79
2018-06-24T06:58:29.424Z,3.69
2018-06-24T07:02:30.124Z,3.42
2018-06-24T07:04:30.885Z,3.7
2018-06-24T07:08:31.667Z,3.04
2018-06-24T07:14:32.456Z,3.95
2018-06-24T07:18:33.201Z,2.62
2018-06-24T07:24:33.879Z,2.5
2018-06-24T07:28:34.622Z,3.85
2018-06-24T07:30:35.868Z,2.74
2018-06-24T07:34:36.660Z,3.18
2018-06-24T07:40:37.333Z,3.99
2018-06-24T07:44:38.019Z,3.08
2018-06-24T07:50:38.822Z,3.2
2018-06-24T07:54:39.613Z,3.29
2018-06-24T07:56:40.486Z,3.51
2018-06-24T08:00:41.158Z,3.14
2018-06-24T08:06:42.000Z,2.68
2018-06-24T08:10:42.730Z,2.99
2018-06-24T08:16:43.499Z,2.89
2018-06-24T08:20:44.224Z,2.4
2018-06-24T08:22:45.060Z,3.72
2018-06-24T08:26:45.617Z,2.86
2018-06-24T08:32:46.401Z,3.06
2018-06-24T08:36:47.195Z,2.89
2018-06-24T08:42:47.883Z,2.28
2018-06-24T08:46:48.636Z,2.21
2018-06-24T08:48:49.273Z,2.41
2018-06-24T08:52:49.935Z,2.62
2018-06-24T08:58:50.638Z,1.81
2018-06-24T09:02:51.357Z,2
2018-06-24T09:08:52.575Z,1.67
2018-06-24T09:12:53.552Z,1.79
2018-06-24T09:14:54.184Z,2.15
2018-06-24T09:18:54.935Z,2.03
2018-06-24T09:24:55.738Z,1.75
2018-06-24T09:28:56.498Z,1.66
2018-06-24T09:34:57.231Z,1.83
2018-06-24T09:38:58.090Z,1.69
2018-06-24T09:40:59.978Z,1.83
2018-06-24T09:45:00.803Z,1.76
2018-06-24T09:51:02.846Z,2.1
2018-06-24T09:55:03.570Z,1.66
2018-06-24T10:01:04.380Z,2.25
2018-06-24T10:05:05.016Z,2.77
2018-06-24T10:07:05.810Z,2.66
2018-06-24T10:11:06.520Z,2.29
2018-06-24T10:17:07.317Z,2.1
2018-06-24T10:21:08.141Z,1.79
2018-06-24T10:27:08.773Z,2.99
2018-06-24T10:31:09.392Z,2.02
2018-06-24T10:33:10.116Z,1.66
2018-06-24T10:37:10.834Z,4.08
2018-06-24T10:43:11.530Z,2.36
2018-06-24T10:47:12.344Z,1.38
2018-06-24T10:53:13.098Z,3.13
2018-06-24T10:59:13.889Z,2.05
2018-06-24T11:03:14.635Z,2.43
2018-06-24T11:09:15.456Z,2.64
2018-06-24T11:13:16.231Z,2.01
2018-06-24T11:19:16.936Z,2.79
2018-06-24T11:25:17.730Z,2.61
2018-06-24T11:29:18.675Z,3.58
2018-06-24T11:35:19.475Z,2.35
2018-06-24T11:39:20.243Z,2.34
2018-06-24T11:45:21.335Z,2.33
2018-06-24T11:51:22.171Z,3.91
2018-06-24T11:55:23.060Z,2.06
2018-06-24T12:01:23.816Z,2.15
2018-06-24T12:05:24.561Z,2.27
2018-06-24T12:11:25.529Z,7.59
2018-06-24T12:17:27.727Z,2.54
2018-06-24T12:21:27.020Z,1.98
2018-06-24T12:27:27.817Z,2.01
2018-06-24T12:31:28.526Z,1.65
2018-06-24T12:37:29.391Z,1.93
2018-06-24T12:43:30.085Z,2.77
2018-06-24T12:47:30.832Z,2.78
2018-06-24T12:53:31.515Z,2.88
2018-06-24T12:57:32.232Z,2.65
2018-06-24T12:59:33.139Z,2.54
2018-06-24T13:03:33.689Z,2.44
2018-06-24T13:09:34.590Z,3.47
2018-06-24T13:13:35.248Z,1.94
2018-06-24T13:19:35.991Z,2.03
2018-06-24T13:23:36.877Z,1.93
2018-06-24T13:25:37.554Z,2.12
2018-06-24T13:29:38.526Z,2.19
2018-06-24T13:35:39.349Z,2.89
2018-06-24T13:39:40.075Z,2.26
2018-06-24T13:45:40.930Z,2.68
2018-06-24T13:49:41.728Z,2.63
2018-06-24T13:51:42.455Z,2.41
2018-06-24T13:55:43.180Z,1.92
2018-06-24T14:01:43.957Z,2.54
2018-06-24T14:05:44.656Z,2.18
2018-06-24T14:11:45.432Z,2.26
2018-06-24T14:15:46.234Z,3.07
2018-06-24T14:17:47.195Z,3.03
2018-06-24T14:21:47.985Z,2.86
2018-06-24T14:27:48.676Z,2.22
2018-06-24T14:31:49.510Z,3.05
2018-06-24T14:37:50.418Z,2.59
2018-06-24T14:41:51.248Z,2.08
2018-06-24T14:43:52.023Z,2.02
2018-06-24T14:47:52.693Z,2.04
2018-06-24T14:53:53.373Z,2.62
2018-06-24T14:57:54.148Z,2.98
2018-06-24T15:03:55.208Z,1.83
2018-06-24T15:09:56.103Z,2.76
2018-06-24T15:13:56.985Z,2.34
2018-06-24T15:19:57.753Z,2.35
2018-06-24T15:23:58.614Z,2.03
2018-06-24T15:29:59.372Z,1.89
2018-06-24T15:36:00.096Z,2.14
2018-06-24T15:40:00.923Z,2.51
2018-06-24T15:46:01.766Z,1.96
2018-06-24T15:50:02.583Z,2.76
2018-06-24T15:56:03.431Z,2.4
2018-06-24T16:02:04.386Z,2.38
2018-06-24T16:06:05.161Z,2.54
2018-06-24T16:12:05.923Z,2.23
2018-06-24T16:16:06.661Z,2.88
2018-06-24T16:22:07.406Z,2.18
2018-06-24T16:28:08.211Z,3.91
2018-06-24T16:32:09.006Z,5.49
2018-06-24T16:38:09.681Z,2.83
2018-06-24T16:42:10.684Z,3.54
2018-06-24T16:44:11.441Z,1.73
2018-06-24T16:48:12.528Z,1.96
2018-06-24T16:54:13.271Z,5.8
2018-06-24T16:58:13.925Z,3.66
2018-06-24T17:04:14.776Z,4.74
2018-06-24T17:08:15.681Z,5.28
2018-06-24T17:10:16.257Z,3.77
2018-06-24T17:14:17.181Z,4.78
2018-06-24T17:20:18.085Z,2.93
2018-06-24T17:24:19.057Z,2.41
2018-06-24T17:30:20.273Z,2.83
2018-06-24T17:34:20.965Z,2.58
2018-06-24T17:36:21.786Z,4.12
2018-06-24T17:40:22.785Z,3.68
2018-06-24T17:46:23.657Z,2.38
2018-06-24T17:50:24.321Z,2.9
2018-06-24T17:56:25.100Z,3.88
2018-06-24T18:00:26.750Z,4.08
2018-06-24T18:02:27.460Z,2.31
2018-06-24T18:06:28.283Z,2.34
2018-06-24T18:12:29.372Z,4.31
2018-06-24T18:16:30.459Z,2.93
2018-06-24T18:22:31.492Z,3.51
2018-06-24T18:26:32.514Z,2.82
2018-06-24T18:28:33.518Z,3.44
2018-06-24T18:32:34.495Z,2.19
2018-06-24T18:38:35.265Z,4.47
2018-06-24T18:42:36.103Z,3.69
2018-06-24T18:48:36.912Z,4.94
2018-06-24T18:52:37.772Z,4.92
2018-06-24T18:54:38.487Z,6.48
2018-06-24T18:58:39.450Z,3.88
2018-06-24T19:04:40.275Z,3.9
2018-06-24T19:08:41.252Z,4.3
2018-06-24T19:14:42.017Z,4.07
2018-06-24T19:18:42.877Z,4.5
2018-06-24T19:20:43.709Z,3.49
2018-06-24T19:24:44.459Z,4.8
2018-06-24T19:30:45.136Z,5.74
2018-06-24T19:34:46.263Z,4.72
2018-06-24T19:40:47.263Z,6.2
2018-06-24T19:46:48.055Z,5.61
2018-06-24T19:50:48.733Z,5
2018-06-24T19:56:49.577Z,7.39
2018-06-24T20:00:50.266Z,6.84
2018-06-24T20:06:51.164Z,4.97
2018-06-24T20:12:51.901Z,6.69
2018-06-24T20:16:52.847Z,5.26
2018-06-24T20:22:53.553Z,8.3
2018-06-24T20:26:54.335Z,5.9
2018-06-24T20:32:55.084Z,4.43
2018-06-24T20:38:55.911Z,5.91
2018-06-24T20:42:56.768Z,6.8
2018-06-24T20:48:57.583Z,6.02
2018-06-24T20:52:58.673Z,5.37
2018-06-24T20:58:59.381Z,5.09
2018-06-24T21:05:00.166Z,4.61
2018-06-24T21:09:00.987Z,5.12
2018-06-24T21:15:02.202Z,4.96
2018-06-24T21:19:02.877Z,4.34
2018-06-24T21:25:03.545Z,6.04
2018-06-24T21:31:04.327Z,7.13
2018-06-24T21:35:05.037Z,8.6
2018-06-24T21:41:05.843Z,6.73
2018-06-24T21:45:06.970Z,6.84
2018-06-24T21:47:07.708Z,12.07
2018-06-24T21:51:08.719Z,12.44
2018-06-24T21:57:09.457Z,10.23
2018-06-24T22:01:10.366Z,11.48
2018-06-24T22:07:11.029Z,19.09
2018-06-24T22:11:11.784Z,16.97
2018-06-24T22:13:12.729Z,17.33
2018-06-24T22:17:13.400Z,17.19
2018-06-24T22:23:14.275Z,19.3
2018-06-24T22:27:14.986Z,17.86
2018-06-24T22:33:15.946Z,8.27
2018-06-24T22:37:16.580Z,6.8
2018-06-24T22:39:17.209Z,5.2
2018-06-24T22:43:17.916Z,5.65
2018-06-24T22:49:18.632Z,5.03
2018-06-24T22:53:19.390Z,7.16
2018-06-24T22:59:20.309Z,8.18
2018-06-24T23:03:21.043Z,9.24
2018-06-24T23:05:21.784Z,7.7
2018-06-24T23:09:22.453Z,8.78
2018-06-24T23:15:23.470Z,10.67
2018-06-24T23:19:24.204Z,13.46
2018-06-24T23:25:24.946Z,9.47
2018-06-24T23:29:25.709Z,6.44
2018-06-24T23:31:26.442Z,6.89
2018-06-24T23:35:27.162Z,6.9
2018-06-24T23:41:28.266Z,5.82
2018-06-24T23:45:29.604Z,5.73
2018-06-24T23:51:30.344Z,4.45
2018-06-24T23:55:31.067Z,4.38
2018-06-24T23:57:31.739Z,3.94
